Time;durP1;ratioP1;P1;durP2;ratioP2;P2;SDS_P1;SDS_P2;PMS_P1;PMS_P2;Temp;Humidity;BMP_temperature;BMP_pressure;BME280_temperature;BME280_humidity;BME280_pressure;Samples;Min_cycle;Max_cycle;Signal;HPM_P1;HPM_P2
2022/01/19 00:00:58;;;;;;;6.47;4.33;;;2.90;64.10;;;;;;4995549;28;20057;-83
2022/01/19 00:03:24;;;;;;;8.20;3.60;;;2.80;64.10;;;;;;5012725;28;20101;-83
2022/01/19 00:05:50;;;;;;;5.87;3.60;;;2.80;64.50;;;;;;4995373;28;20502;-83
2022/01/19 00:08:19;;;;;;;9.33;5.17;;;2.90;64.50;;;;;;5004107;28;20026;-83
2022/01/19 00:10:47;;;;;;;6.20;3.80;;;2.90;64.30;;;;;;5008033;28;20112;-82
2022/01/19 00:13:13;;;;;;;7.37;3.77;;;2.90;64.00;;;;;;4992728;28;20025;-83
2022/01/19 00:15:40;;;;;;;7.90;4.23;;;2.90;64.10;;;;;;5010409;28;20092;-83
2022/01/19 00:18:07;;;;;;;5.63;3.53;;;2.90;63.90;;;;;;4993449;28;20121;-82
2022/01/19 00:20:34;;;;;;;5.83;3.47;;;2.80;63.90;;;;;;5011076;28;20037;-83
2022/01/19 00:23:04;;;;;;;5.13;3.47;;;2.90;63.90;;;;;;4994147;28;20481;-83
2022/01/19 00:25:31;;;;;;;6.90;3.40;;;2.80;64.40;;;;;;4991687;28;20061;-83
2022/01/19 00:27:56;;;;;;;4.80;3.40;;;2.80;63.80;;;;;;4973724;28;20022;-82
2022/01/19 00:30:22;;;;;;;8.50;3.10;;;2.80;63.70;;;;;;4994281;28;20026;-83
2022/01/19 00:32:48;;;;;;;6.03;2.83;;;2.80;63.70;;;;;;4992713;28;20481;-83
2022/01/19 00:35:14;;;;;;;4.80;2.73;;;2.80;63.90;;;;;;4994617;28;20033;-83
2022/01/19 00:37:42;;;;;;;4.83;3.03;;;2.80;63.90;;;;;;5011022;28;20544;-82
2022/01/19 00:40:11;;;;;;;6.50;3.70;;;2.90;64.10;;;;;;5000411;28;20030;-82
2022/01/19 00:42:37;;;;;;;7.33;4.67;;;2.90;64.00;;;;;;5011359;28;20041;-83
2022/01/19 00:45:05;;;;;;;11.43;7.73;;;2.90;64.10;;;;;;4992387;28;20026;-83
2022/01/19 00:47:30;;;;;;;14.03;8.23;;;2.90;64.20;;;;;;4990254;28;20037;-83
2022/01/19 00:49:56;;;;;;;7.73;4.80;;;3.00;64.30;;;;;;4991698;28;20397;-83
2022/01/19 00:52:22;;;;;;;5.53;3.47;;;2.90;64.20;;;;;;4994505;28;20168;-83
2022/01/19 00:54:47;;;;;;;6.13;3.53;;;2.90;64.40;;;;;;4997720;28;20500;-83
2022/01/19 00:57:13;;;;;;;17.83;8.07;;;2.80;64.40;;;;;;5015462;28;20041;-83
2022/01/19 00:59:39;;;;;;;10.83;6.57;;;2.80;64.70;;;;;;5002106;28;20111;-83
2022/01/19 01:02:06;;;;;;;11.20;7.10;;;2.80;64.60;;;;;;5005691;28;20037;-82
2022/01/19 01:04:32;;;;;;;13.57;8.30;;;2.80;65.00;;;;;;4996100;28;20030;-83
2022/01/19 01:06:59;;;;;;;9.13;5.37;;;2.80;65.10;;;;;;5011670;28;20030;-83
2022/01/19 01:09:25;;;;;;;5.30;3.33;;;2.70;65.20;;;;;;4995463;28;20365;-82
2022/01/19 01:12:12;;;;;;;7.57;3.23;;;2.70;65.30;;;;;;5000155;28;20080;-82
2022/01/19 01:20:12;;;;;;;5.80;2.80;;;2.90;64.70;;;;;;5009222;28;20037;-82
2022/01/19 01:22:39;;;;;;;5.87;3.90;;;2.80;64.50;;;;;;5004746;28;20500;-83
2022/01/19 01:25:07;;;;;;;8.37;4.20;;;2.80;64.90;;;;;;4994942;28;20030;-82
2022/01/19 01:27:33;;;;;;;7.13;4.30;;;2.80;64.80;;;;;;4978849;28;20041;-83
2022/01/19 01:29:59;;;;;;;8.30;5.03;;;2.80;64.80;;;;;;4998227;28;20033;-83
2022/01/19 01:32:25;;;;;;;10.00;5.63;;;2.80;64.80;;;;;;4995251;28;20485;-83
2022/01/19 01:34:52;;;;;;;8.10;5.57;;;2.70;64.70;;;;;;4995862;28;20031;-83
2022/01/19 01:37:18;;;;;;;9.20;5.83;;;2.60;64.80;;;;;;5012988;28;20393;-83
2022/01/19 01:39:44;;;;;;;12.63;6.20;;;2.70;64.90;;;;;;5004382;28;20036;-83
2022/01/19 01:42:12;;;;;;;5.80;4.37;;;2.60;64.70;;;;;;4992188;28;20481;-83
2022/01/19 01:44:40;;;;;;;6.50;4.23;;;2.60;64.90;;;;;;4991000;28;20022;-83
2022/01/19 01:47:07;;;;;;;7.30;4.17;;;2.50;64.80;;;;;;4996085;28;20026;-83
2022/01/19 01:54:59;;;;;;;5.67;3.60;;;2.50;65.40;;;;;;5013768;28;20037;-84
2022/01/19 01:57:25;;;;;;;7.77;4.80;;;2.40;64.70;;;;;;5001982;28;20025;-83
2022/01/19 01:59:51;;;;;;;8.10;4.27;;;2.40;64.70;;;;;;4999149;28;20113;-83
2022/01/19 02:02:17;;;;;;;10.00;4.60;;;2.40;64.70;;;;;;4995088;28;20057;-83
2022/01/19 02:04:43;;;;;;;7.37;3.77;;;2.30;64.70;;;;;;4992160;28;20477;-83
2022/01/19 02:09:44;;;;;;;9.95;3.95;;;2.30;65.10;;;;;;5010512;28;20436;-83
2022/01/19 02:26:20;;;;;;;8.13;3.70;;;2.30;64.70;;;;;;5001692;28;20040;-83
2022/01/19 02:29:08;;;;;;;8.27;3.63;;;2.20;64.90;;;;;;4992273;28;20025;-83
2022/01/19 02:40:06;;;;;;;4.80;2.73;;;2.20;65.00;;;;;;5010993;28;20037;-83
2022/01/19 02:42:36;;;;;;;3.33;2.38;;;2.20;64.60;;;;;;5012721;28;20087;-83
2022/01/19 02:50:14;;;;;;;5.53;2.30;;;2.00;64.80;;;;;;5010758;28;20032;-83
2022/01/19 02:52:40;;;;;;;4.57;2.90;;;2.00;64.80;;;;;;5007246;28;20096;-83
2022/01/19 02:55:07;;;;;;;5.63;3.60;;;2.00;64.80;;;;;;4987049;28;20484;-83
2022/01/19 02:57:35;;;;;;;5.60;3.40;;;2.10;64.70;;;;;;5010968;28;20029;-83
2022/01/19 03:06:31;;;;;;;6.77;3.80;;;2.10;64.70;;;;;;4989290;28;20084;-83
2022/01/19 03:11:00;;;;;;;6.17;2.87;;;2.00;64.90;;;;;;5005905;28;20040;-83
2022/01/19 03:13:25;;;;;;;5.77;3.33;;;2.00;65.00;;;;;;4999425;28;20025;-83
2022/01/19 03:15:51;;;;;;;5.87;3.40;;;2.00;64.90;;;;;;5010200;28;20042;-83
2022/01/19 03:18:17;;;;;;;3.40;2.47;;;2.10;64.80;;;;;;4997225;28;20048;-83
2022/01/19 03:20:43;;;;;;;4.33;2.63;;;2.10;64.90;;;;;;5007104;28;20459;-83
2022/01/19 03:23:19;;;;;;;5.37;2.63;;;2.10;64.70;;;;;;5004145;28;20388;-83
2022/01/19 03:25:44;;;;;;;5.37;2.40;;;2.10;64.90;;;;;;5009766;28;20037;-83
2022/01/19 03:28:10;;;;;;;6.17;3.77;;;2.20;65.00;;;;;;5002245;28;20034;-83
2022/01/19 03:30:36;;;;;;;4.73;2.40;;;2.20;64.70;;;;;;5015801;28;20101;-83
2022/01/19 03:33:02;;;;;;;3.43;2.13;;;2.30;64.80;;;;;;4992200;28;20124;-82
2022/01/19 03:35:29;;;;;;;4.13;2.73;;;2.10;64.60;;;;;;4980725;28;20045;-82
2022/01/19 03:37:55;;;;;;;3.80;2.43;;;2.10;64.70;;;;;;5010182;28;20500;-82
2022/01/19 03:40:22;;;;;;;3.63;2.00;;;2.10;64.80;;;;;;5006265;28;20033;-82
2022/01/19 03:42:48;;;;;;;3.97;2.43;;;2.10;64.70;;;;;;4999511;28;20384;-83
2022/01/19 03:45:14;;;;;;;3.03;1.80;;;2.10;64.60;;;;;;4997437;28;20029;-83
2022/01/19 03:48:05;;;;;;;6.67;3.67;;;2.10;64.20;;;;;;5004751;28;20037;-83
2022/01/19 03:50:26;;;;;;;4.23;2.40;;;2.10;64.40;;;;;;5008410;28;20029;-83
2022/01/19 03:52:52;;;;;;;6.93;2.87;;;2.20;64.50;;;;;;5000647;28;20022;-83
2022/01/19 03:55:18;;;;;;;4.07;2.40;;;2.20;64.20;;;;;;5007114;28;20052;-83
2022/01/19 03:57:43;;;;;;;5.63;3.63;;;2.10;64.50;;;;;;4998578;28;20037;-83
2022/01/19 04:00:10;;;;;;;5.20;2.97;;;2.10;64.40;;;;;;5000815;28;20470;-82
2022/01/19 04:02:36;;;;;;;4.93;3.17;;;2.10;64.40;;;;;;4991315;28;20481;-82
2022/01/19 04:05:08;;;;;;;3.73;2.10;;;2.10;64.50;;;;;;4999099;28;20133;-83
2022/01/19 04:07:34;;;;;;;3.88;1.50;;;2.00;64.20;;;;;;5009838;28;20025;-82
2022/01/19 04:10:00;;;;;;;4.33;1.53;;;2.00;64.40;;;;;;5001196;28;20469;-82
2022/01/19 04:12:45;;;;;;;2.47;1.70;;;2.00;64.30;;;;;;5004470;28;20037;-82
2022/01/19 04:15:13;;;;;;;2.63;1.83;;;2.00;64.30;;;;;;4998859;28;20072;-83
2022/01/19 04:17:46;;;;;;;3.10;1.67;;;1.90;64.00;;;;;;5004906;28;20489;-82
2022/01/19 04:20:13;;;;;;;5.95;2.65;;;2.00;64.20;;;;;;4982470;28;20030;-82
2022/01/19 04:22:39;;;;;;;5.53;3.50;;;2.00;64.10;;;;;;5001209;28;20505;-82
2022/01/19 04:25:05;;;;;;;8.27;3.97;;;2.00;63.90;;;;;;5003312;28;20036;-83
2022/01/19 04:27:32;;;;;;;5.30;3.77;;;1.90;64.10;;;;;;5006711;28;20068;-82
2022/01/19 04:30:06;;;;;;;5.97;3.87;;;1.90;64.30;;;;;;4994919;28;20036;-82
2022/01/19 04:35:04;;;;;;;6.63;2.50;;;1.90;64.10;;;;;;5007520;28;20105;-83
2022/01/19 04:46:45;;;;;;;4.10;2.73;;;1.80;64.10;;;;;;5010911;28;19967;-82
2022/01/19 05:07:43;;;;;;;7.73;3.90;;;1.70;64.30;;;;;;5010930;28;20347;-82
2022/01/19 05:15:37;;;;;;;5.13;3.03;;;1.60;64.20;;;;;;5001810;28;20056;-82
2022/01/19 05:18:05;;;;;;;5.13;3.20;;;1.60;64.20;;;;;;4994598;28;20030;-82
2022/01/19 05:20:31;;;;;;;6.77;3.80;;;1.60;64.20;;;;;;5010453;28;20042;-82
2022/01/19 05:22:57;;;;;;;5.97;3.10;;;1.60;64.10;;;;;;4991881;28;20160;-82
2022/01/19 05:25:22;;;;;;;6.57;3.60;;;1.50;64.00;;;;;;4998189;28;20038;-82
2022/01/19 05:27:48;;;;;;;14.10;5.10;;;1.50;64.00;;;;;;5010427;28;20400;-82
2022/01/19 05:30:17;;;;;;;9.73;5.97;;;1.60;64.00;;;;;;4999757;28;20117;-82
2022/01/19 05:32:46;;;;;;;9.27;5.30;;;1.60;64.10;;;;;;5000030;28;20033;-82
2022/01/19 05:35:12;;;;;;;6.37;3.40;;;1.60;64.00;;;;;;5002624;28;20468;-83
2022/01/19 05:37:39;;;;;;;7.03;3.53;;;1.50;64.20;;;;;;5005952;28;20038;-82
2022/01/19 05:40:07;;;;;;;10.17;4.10;;;1.50;64.50;;;;;;5011867;28;20095;-82
2022/01/19 05:42:33;;;;;;;8.37;4.47;;;1.50;64.60;;;;;;5010904;28;20112;-82
2022/01/19 05:44:59;;;;;;;9.67;4.30;;;1.50;64.20;;;;;;4998126;28;20026;-82
2022/01/19 05:47:25;;;;;;;11.53;5.43;;;1.40;64.30;;;;;;5001267;28;20037;-83
2022/01/19 05:49:52;;;;;;;14.53;7.90;;;1.50;64.50;;;;;;5010745;28;20025;-82
2022/01/19 05:52:19;;;;;;;6.90;3.77;;;1.50;64.90;;;;;;5009435;28;20484;-82
2022/01/19 05:54:45;;;;;;;11.20;5.03;;;1.70;64.60;;;;;;5002407;28;20488;-83
2022/01/19 05:57:12;;;;;;;13.37;8.20;;;1.60;64.90;;;;;;5006020;28;20109;-82
2022/01/19 05:59:37;;;;;;;9.03;5.30;;;1.60;64.70;;;;;;4978842;28;20038;-83
2022/01/19 06:02:04;;;;;;;10.43;6.00;;;1.40;64.40;;;;;;4992899;28;20057;-82
2022/01/19 06:04:30;;;;;;;19.57;11.40;;;1.50;65.00;;;;;;5010842;28;20033;-82
2022/01/19 06:06:56;;;;;;;17.50;10.63;;;1.60;65.30;;;;;;4994241;28;20341;-82
2022/01/19 06:12:09;;;;;;;11.10;6.07;;;1.70;65.20;;;;;;5003035;28;20026;-82
2022/01/19 06:14:38;;;;;;;10.63;5.37;;;1.70;64.70;;;;;;5014113;28;20034;-82
2022/01/19 06:17:07;;;;;;;12.27;7.87;;;1.60;64.10;;;;;;4979056;28;20447;-82
2022/01/19 06:19:34;;;;;;;15.53;8.37;;;1.50;64.40;;;;;;5004433;28;20641;-82
2022/01/19 06:22:01;;;;;;;15.47;8.10;;;1.50;64.50;;;;;;4985343;28;20737;-82
2022/01/19 06:24:28;;;;;;;9.37;5.17;;;1.50;65.10;;;;;;4993429;28;20635;-82
2022/01/19 06:26:54;;;;;;;11.40;6.10;;;1.50;64.60;;;;;;4995555;28;20412;-82
2022/01/19 06:29:21;;;;;;;12.73;6.73;;;1.50;64.50;;;;;;4996368;28;20025;-82
2022/01/19 06:31:47;;;;;;;14.43;8.00;;;1.40;64.60;;;;;;5000270;28;20400;-82
2022/01/19 06:34:15;;;;;;;13.07;8.00;;;1.40;64.50;;;;;;5011911;28;20038;-82
2022/01/19 06:36:41;;;;;;;16.97;7.97;;;1.40;64.80;;;;;;4994953;28;20034;-82
2022/01/19 06:39:07;;;;;;;13.27;8.63;;;1.50;64.80;;;;;;5002921;28;20036;-82
2022/01/19 06:41:33;;;;;;;12.47;9.40;;;1.50;64.50;;;;;;5015994;28;20030;-82
2022/01/19 06:43:59;;;;;;;14.00;9.37;;;1.50;64.40;;;;;;4995207;28;20469;-82
2022/01/19 06:46:25;;;;;;;11.90;8.03;;;1.50;64.20;;;;;;4994231;28;20018;-82
2022/01/19 06:48:52;;;;;;;14.33;7.70;;;1.50;64.20;;;;;;5011586;28;20029;-82
2022/01/19 06:51:17;;;;;;;13.73;8.13;;;1.60;64.10;;;;;;5003524;28;20037;-82
2022/01/19 06:53:43;;;;;;;12.00;7.20;;;1.50;64.10;;;;;;4991799;28;20030;-82
2022/01/19 06:56:09;;;;;;;11.00;6.23;;;1.50;64.10;;;;;;4993315;28;20428;-82
2022/01/19 06:58:35;;;;;;;14.67;9.23;;;1.50;64.20;;;;;;4995485;28;20026;-82
2022/01/19 07:01:01;;;;;;;15.70;8.80;;;1.60;64.20;;;;;;4994092;28;20037;-82
2022/01/19 07:03:26;;;;;;;15.13;8.87;;;1.60;64.10;;;;;;5010455;28;20054;-82
2022/01/19 07:05:52;;;;;;;15.73;9.83;;;1.50;64.20;;;;;;5008050;28;20054;-82
2022/01/19 07:08:18;;;;;;;15.03;9.40;;;1.60;64.30;;;;;;4990470;28;20072;-82
2022/01/19 07:10:45;;;;;;;15.63;9.37;;;1.60;64.20;;;;;;4995694;28;20508;-82
2022/01/19 07:13:11;;;;;;;22.13;11.10;;;1.50;64.20;;;;;;4983404;28;20036;-82
2022/01/19 07:15:37;;;;;;;15.30;9.40;;;1.60;64.20;;;;;;4995722;28;20417;-82
2022/01/19 07:18:03;;;;;;;16.53;9.50;;;1.60;64.20;;;;;;4998044;28;20064;-82
2022/01/19 07:20:30;;;;;;;15.40;9.80;;;1.60;64.20;;;;;;5012871;28;20097;-82
2022/01/19 07:23:01;;;;;;;13.73;8.67;;;1.60;64.30;;;;;;4989221;28;20023;-82
2022/01/19 07:25:28;;;;;;;19.57;9.90;;;1.60;64.30;;;;;;4976438;28;20081;-82
2022/01/19 07:27:56;;;;;;;13.53;7.70;;;1.60;64.30;;;;;;4997568;28;20033;-82
2022/01/19 07:30:22;;;;;;;19.10;9.93;;;1.60;64.30;;;;;;4995145;28;20121;-82
2022/01/19 07:32:49;;;;;;;18.67;11.20;;;1.60;64.40;;;;;;4995509;28;20129;-82
2022/01/19 07:35:16;;;;;;;19.33;11.40;;;1.50;64.60;;;;;;4995351;28;20496;-82
2022/01/19 07:37:42;;;;;;;18.73;11.83;;;1.60;64.60;;;;;;5012650;28;20029;-82
2022/01/19 07:40:09;;;;;;;17.97;11.23;;;1.60;64.40;;;;;;4995063;28;20030;-82
2022/01/19 07:42:34;;;;;;;16.13;10.43;;;1.60;64.20;;;;;;4988547;28;20053;-82
2022/01/19 07:45:03;;;;;;;17.40;10.23;;;1.50;64.30;;;;;;4995048;28;20098;-82
2022/01/19 07:47:28;;;;;;;37.40;10.87;;;1.60;64.60;;;;;;5002751;28;20049;-82
2022/01/19 07:49:57;;;;;;;16.93;7.83;;;1.60;64.50;;;;;;5000850;28;20460;-83
2022/01/19 07:52:23;;;;;;;12.17;7.67;;;1.60;64.40;;;;;;4999996;28;20482;-82
2022/01/19 07:54:50;;;;;;;24.53;7.73;;;1.60;64.40;;;;;;5011692;28;20022;-82
2022/01/19 07:57:16;;;;;;;23.47;11.70;;;1.60;64.40;;;;;;4994956;28;20041;-82
2022/01/19 07:59:42;;;;;;;19.13;10.93;;;1.60;64.40;;;;;;4994790;28;20038;-82
2022/01/19 08:02:10;;;;;;;23.00;12.47;;;1.60;64.40;;;;;;5012725;28;20037;-82
2022/01/19 08:04:38;;;;;;;25.70;12.37;;;1.60;64.30;;;;;;4994770;28;20096;-82
2022/01/19 08:07:04;;;;;;;21.97;12.07;;;1.60;64.20;;;;;;4995059;28;20022;-83
2022/01/19 08:09:33;;;;;;;19.23;9.47;;;1.60;64.10;;;;;;5012862;28;20033;-82
2022/01/19 08:11:59;;;;;;;16.03;9.53;;;1.60;64.00;;;;;;4995327;28;20034;-82
2022/01/19 08:14:25;;;;;;;39.17;16.17;;;1.60;64.20;;;;;;4994585;28;20040;-82
2022/01/19 08:16:52;;;;;;;49.50;22.40;;;1.60;64.20;;;;;;5012472;28;20058;-82
2022/01/19 08:19:18;;;;;;;33.40;16.63;;;1.50;64.90;;;;;;4994358;28;20037;-83
2022/01/19 08:21:44;;;;;;;24.97;13.20;;;1.50;64.30;;;;;;4994743;28;20104;-82
2022/01/19 08:24:09;;;;;;;20.53;10.67;;;1.60;64.20;;;;;;5005480;28;20436;-83
2022/01/19 08:26:35;;;;;;;18.13;9.57;;;1.70;64.20;;;;;;5001610;28;20033;-82
2022/01/19 08:29:01;;;;;;;15.00;8.50;;;1.70;64.20;;;;;;4991885;28;20022;-82
2022/01/19 08:31:27;;;;;;;14.73;8.07;;;1.80;64.10;;;;;;5010173;28;20029;-81
2022/01/19 08:33:53;;;;;;;19.40;10.53;;;1.80;64.00;;;;;;5012401;28;20477;-82
2022/01/19 08:36:21;;;;;;;17.97;9.97;;;1.80;64.00;;;;;;4990249;28;20034;-82
2022/01/19 08:38:47;;;;;;;13.97;8.43;;;1.90;63.80;;;;;;4994657;28;20057;-82
2022/01/19 08:41:12;;;;;;;15.17;8.77;;;1.90;63.60;;;;;;4993317;28;20036;-82
2022/01/19 08:43:38;;;;;;;20.53;9.00;;;1.90;63.60;;;;;;4985587;28;20785;-82
2022/01/19 08:46:05;;;;;;;20.17;11.23;;;1.90;63.40;;;;;;4994660;28;20117;-82
2022/01/19 08:48:31;;;;;;;18.00;10.93;;;1.90;63.50;;;;;;5012258;28;20034;-82
2022/01/19 08:50:57;;;;;;;18.20;9.60;;;1.90;63.70;;;;;;4983851;28;20134;-82
2022/01/19 08:53:23;;;;;;;17.57;8.63;;;1.80;63.70;;;;;;4994514;28;20033;-82
2022/01/19 08:55:49;;;;;;;15.10;9.10;;;1.90;63.90;;;;;;4977312;28;20038;-82
2022/01/19 08:58:15;;;;;;;11.97;7.53;;;1.90;63.80;;;;;;5009374;28;20503;-82
2022/01/19 09:00:45;;;;;;;23.90;8.37;;;2.00;63.90;;;;;;4994449;28;20532;-82
2022/01/19 09:03:12;;;;;;;11.33;6.33;;;2.00;63.80;;;;;;5001538;28;20026;-82
2022/01/19 09:05:37;;;;;;;7.33;4.83;;;2.00;63.80;;;;;;4994608;28;20124;-82
2022/01/19 09:08:04;;;;;;;9.60;4.93;;;2.20;63.90;;;;;;4988212;28;20045;-82
2022/01/19 09:10:30;;;;;;;10.83;6.23;;;2.30;63.50;;;;;;5015129;28;20061;-83
2022/01/19 09:12:55;;;;;;;9.97;5.97;;;2.30;63.30;;;;;;4998006;28;20215;-82
2022/01/19 09:15:23;;;;;;;11.83;6.47;;;2.50;63.20;;;;;;4994480;28;20057;-82
2022/01/19 09:17:48;;;;;;;10.77;6.90;;;2.50;63.20;;;;;;4995854;28;20038;-83
2022/01/19 09:20:16;;;;;;;11.30;5.97;;;2.70;63.30;;;;;;4994354;28;20431;-83
2022/01/19 09:22:42;;;;;;;8.53;5.67;;;2.70;63.20;;;;;;4996288;28;20053;-83
2022/01/19 09:25:09;;;;;;;11.47;6.17;;;2.90;63.00;;;;;;4996350;28;20038;-83
2022/01/19 09:27:38;;;;;;;10.07;5.50;;;3.00;62.70;;;;;;4995116;28;20061;-83
2022/01/19 09:30:06;;;;;;;11.57;5.50;;;3.20;62.60;;;;;;4994383;28;20053;-83
2022/01/19 09:32:32;;;;;;;11.27;6.87;;;3.40;62.40;;;;;;4994837;28;20030;-83
2022/01/19 09:35:06;;;;;;;10.70;6.73;;;3.60;62.30;;;;;;4985572;28;20039;-84
2022/01/19 09:37:32;;;;;;;13.30;6.50;;;3.80;61.80;;;;;;4986446;28;20557;-84
2022/01/19 09:39:59;;;;;;;17.67;6.37;;;4.00;61.40;;;;;;4994692;28;20780;-84
2022/01/19 09:42:25;;;;;;;13.83;5.77;;;4.30;61.10;;;;;;4996075;28;20376;-84
2022/01/19 09:44:52;;;;;;;12.63;6.17;;;4.40;60.60;;;;;;4994317;28;20069;-85
2022/01/19 09:47:19;;;;;;;10.93;5.47;;;4.60;61.00;;;;;;4995814;28;20030;-84
2022/01/19 09:49:44;;;;;;;16.87;8.10;;;4.70;60.10;;;;;;4994497;28;20088;-84
2022/01/19 09:52:10;;;;;;;11.40;5.33;;;4.80;60.50;;;;;;4987394;28;20034;-85
2022/01/19 09:54:36;;;;;;;8.27;4.70;;;5.00;59.50;;;;;;4986203;28;20031;-85
2022/01/19 09:57:03;;;;;;;8.27;4.97;;;5.10;59.30;;;;;;4984621;28;20508;-84
2022/01/19 09:59:29;;;;;;;10.30;4.90;;;5.20;59.00;;;;;;4995429;28;20520;-85
2022/01/19 10:02:03;;;;;;;28.83;6.17;;;5.30;58.80;;;;;;4992758;28;20104;-85
2022/01/19 10:04:35;;;;;;;11.33;4.87;;;5.50;58.60;;;;;;4994094;28;20027;-84
2022/01/19 10:07:26;;;;;;;11.97;5.80;;;5.70;58.20;;;;;;4989619;28;20027;-84
2022/01/19 10:09:59;;;;;;;9.83;4.53;;;5.80;57.70;;;;;;4984697;28;20141;-85
2022/01/19 10:18:29;;;;;;;;;;;6.40;57.00;;;;;;4997568;28;20044;-85
2022/01/19 10:21:13;;;;;;;10.70;4.50;;;6.50;57.00;;;;;;4997088;28;19960;-84
2022/01/19 10:23:48;;;;;;;9.87;4.77;;;6.70;56.70;;;;;;4990717;28;20464;-85
2022/01/19 10:26:22;;;;;;;8.23;4.27;;;6.70;56.20;;;;;;4997144;28;20033;-85
2022/01/19 10:29:10;;;;;;;5.30;3.53;;;6.80;56.30;;;;;;4996849;28;20480;-85
2022/01/19 10:31:38;;;;;;;8.93;4.30;;;7.10;55.70;;;;;;4995141;28;20033;-85
2022/01/19 10:34:16;;;;;;;6.77;4.27;;;7.30;55.30;;;;;;4977702;28;20076;-85
2022/01/19 10:36:56;;;;;;;9.40;5.10;;;7.50;55.00;;;;;;4977655;28;20089;-85
2022/01/19 10:39:37;;;;;;;8.87;4.43;;;7.60;54.10;;;;;;4990684;28;20088;-85
2022/01/19 10:42:09;;;;;;;7.13;4.27;;;7.40;54.10;;;;;;4996562;28;20070;-85
2022/01/19 10:44:38;;;;;;;7.60;4.35;;;7.60;54.80;;;;;;4996592;28;20477;-85
2022/01/19 10:47:05;;;;;;;9.03;5.83;;;7.80;54.00;;;;;;4996713;28;20084;-85
2022/01/19 10:49:50;;;;;;;11.17;6.13;;;7.90;53.40;;;;;;4996906;28;20480;-85
2022/01/19 10:52:53;;;;;;;8.57;4.77;;;7.90;52.60;;;;;;4982042;28;20026;-85
2022/01/19 10:55:19;;;;;;;;;;;8.00;52.50;;;;;;4987009;28;20072;-85
2022/01/19 10:57:45;;;;;;;6.43;4.17;;;7.90;53.10;;;;;;4982449;28;19910;-85
2022/01/19 11:00:20;;;;;;;10.37;4.57;;;7.90;52.70;;;;;;4996588;28;20084;-85
2022/01/19 11:02:48;;;;;;;14.87;4.77;;;7.90;52.30;;;;;;4996491;28;20026;-85
2022/01/19 11:05:15;;;;;;;8.10;4.13;;;8.10;52.30;;;;;;4996056;28;20028;-85
2022/01/19 11:07:43;;;;;;;10.67;5.00;;;8.20;52.00;;;;;;4996399;28;20026;-85
2022/01/19 11:10:18;;;;;;;18.40;5.30;;;8.20;51.40;;;;;;4996441;28;20546;-85
2022/01/19 11:12:47;;;;;;;13.63;4.63;;;8.30;51.40;;;;;;5001249;28;20026;-85
2022/01/19 11:15:18;;;;;;;15.50;5.50;;;8.50;51.20;;;;;;4996032;28;20049;-85
2022/01/19 11:17:45;;;;;;;8.20;4.00;;;8.50;50.80;;;;;;4996219;28;20021;-85
2022/01/19 11:20:15;;;;;;;15.67;4.60;;;8.60;50.60;;;;;;4980972;28;20026;-85
2022/01/19 11:23:16;;;;;;;12.03;4.03;;;8.60;50.30;;;;;;4988331;28;20056;-85
2022/01/19 11:25:51;;;;;;;8.13;3.83;;;8.80;50.40;;;;;;4995747;28;20084;-85
2022/01/19 11:28:35;;;;;;;3.97;2.60;;;9.10;50.20;;;;;;4993410;28;20053;-85
2022/01/19 11:31:11;;;;;;;5.73;2.70;;;9.20;49.00;;;;;;4992996;28;20065;-85
2022/01/19 11:33:56;;;;;;;9.20;2.63;;;9.40;48.90;;;;;;4996712;28;20480;-85
2022/01/19 11:36:24;;;;;;;5.10;2.43;;;9.40;48.00;;;;;;4990669;28;20029;-85
2022/01/19 11:38:53;;;;;;;7.60;3.50;;;9.50;48.00;;;;;;4991783;28;20481;-85
2022/01/19 11:41:23;;;;;;;8.13;3.43;;;9.60;47.20;;;;;;4990086;28;20013;-85
2022/01/19 11:43:52;;;;;;;6.90;3.40;;;9.70;47.00;;;;;;4995994;28;20644;-86
2022/01/19 11:46:39;;;;;;;6.23;2.50;;;9.80;46.80;;;;;;4979820;28;20034;-86
2022/01/19 11:49:08;;;;;;;4.17;2.67;;;9.80;45.80;;;;;;4995651;28;20036;-86
2022/01/19 11:51:43;;;;;;;7.07;2.90;;;9.80;46.00;;;;;;4995399;28;20030;-85
2022/01/19 11:54:30;;;;;;;7.53;3.37;;;9.90;45.90;;;;;;4980220;28;20030;-86
2022/01/19 11:57:05;;;;;;;10.97;3.40;;;9.80;45.50;;;;;;4993673;28;20029;-85
2022/01/19 11:59:46;;;;;;;6.87;2.93;;;9.80;46.00;;;;;;5012048;28;20041;-86
2022/01/19 12:02:24;;;;;;;11.07;3.73;;;9.80;45.70;;;;;;4989470;28;20026;-85
2022/01/19 12:05:10;;;;;;;11.10;3.97;;;9.80;45.60;;;;;;5008351;28;20025;-86
2022/01/19 12:07:45;;;;;;;7.97;3.13;;;9.80;45.80;;;;;;4999685;28;20036;-86
2022/01/19 12:10:19;;;;;;;6.00;2.40;;;9.80;45.80;;;;;;4996317;28;20030;-86
2022/01/19 12:19:14;;;;;;;6.23;2.90;;;10.10;44.70;;;;;;5006736;28;20029;-86
2022/01/19 12:21:40;;;;;;;10.13;3.40;;;10.10;44.80;;;;;;4994264;28;20030;-85
2022/01/19 12:24:29;;;;;;;6.97;3.10;;;10.10;45.20;;;;;;4998266;28;20076;-85
2022/01/19 12:27:18;;;;;;;6.30;3.03;;;10.20;45.00;;;;;;4976110;28;20042;-86
2022/01/19 12:30:07;;;;;;;13.93;3.07;;;10.30;45.20;;;;;;4976130;28;20393;-86
2022/01/19 12:32:52;;;;;;;12.47;2.90;;;10.40;45.20;;;;;;4992366;28;20038;-86
2022/01/19 12:35:34;;;;;;;8.97;3.40;;;10.40;45.10;;;;;;5012721;28;20026;-86
2022/01/19 12:38:03;;;;;;;7.90;2.55;;;10.50;45.00;;;;;;4995216;28;20477;-86
2022/01/19 12:40:35;;;;;;;7.90;3.23;;;10.50;45.20;;;;;;5012623;28;20037;-85
2022/01/19 12:43:12;;;;;;;11.30;3.25;;;10.50;44.90;;;;;;4998563;28;20448;-85
2022/01/19 12:45:51;;;;;;;6.10;2.83;;;10.40;44.80;;;;;;4993942;28;20061;-86
2022/01/19 12:48:37;;;;;;;14.57;2.97;;;10.40;44.70;;;;;;5007119;28;20137;-85
2022/01/19 12:51:04;;;;;;;11.27;3.00;;;10.30;44.90;;;;;;4996838;28;20084;-86
2022/01/19 12:53:30;;;;;;;8.33;3.13;;;10.30;45.20;;;;;;5000405;28;20034;-85
2022/01/19 12:56:03;;;;;;;10.10;3.17;;;10.30;45.20;;;;;;5008842;28;20025;-86
2022/01/19 12:58:33;;;;;;;8.57;3.10;;;10.30;45.00;;;;;;4993483;28;20034;-86
2022/01/19 13:01:01;;;;;;;6.80;1.90;;;10.20;44.80;;;;;;4998574;28;20378;-86
2022/01/19 13:03:36;;;;;;;3.37;1.80;;;10.30;44.40;;;;;;4984804;28;20037;-85
2022/01/19 13:06:07;;;;;;;14.87;2.33;;;10.30;44.00;;;;;;4998463;28;20147;-85
2022/01/19 13:08:37;;;;;;;6.73;2.37;;;10.30;43.80;;;;;;4979859;28;20053;-86
2022/01/19 13:11:22;;;;;;;5.77;2.00;;;10.30;43.40;;;;;;4993255;28;20030;-86
2022/01/19 13:13:59;;;;;;;5.60;2.47;;;10.30;43.40;;;;;;4996906;28;20631;-86
2022/01/19 13:16:31;;;;;;;7.60;2.60;;;10.20;43.30;;;;;;4975897;28;20043;-85
2022/01/19 13:19:02;;;;;;;5.37;1.93;;;10.30;43.30;;;;;;4989093;28;20023;-85
2022/01/19 13:21:28;;;;;;;4.13;2.63;;;10.20;43.50;;;;;;4994634;28;20060;-85
2022/01/19 13:24:01;;;;;;;5.83;2.70;;;10.20;42.90;;;;;;4994731;28;20022;-85
2022/01/19 13:26:39;;;;;;;11.50;2.53;;;10.10;42.90;;;;;;4994765;28;20046;-85
2022/01/19 13:29:39;;;;;;;5.70;2.30;;;10.10;42.90;;;;;;4994671;28;20440;-86
2022/01/19 13:32:10;;;;;;;7.40;2.40;;;10.10;42.70;;;;;;4987964;28;20401;-85
2022/01/19 13:34:58;;;;;;;6.03;2.20;;;10.10;42.80;;;;;;4994956;28;20026;-85
2022/01/19 13:37:32;;;;;;;4.23;2.30;;;10.00;42.50;;;;;;4994868;28;20029;-85
2022/01/19 13:40:12;;;;;;;5.33;2.10;;;10.00;42.50;;;;;;4995611;28;20045;-85
2022/01/19 13:42:54;;;;;;;4.93;2.23;;;10.00;42.50;;;;;;4995481;28;20088;-85
2022/01/19 13:48:05;;;;;;;6.80;2.50;;;10.10;42.90;;;;;;4997193;28;20022;-85
2022/01/19 13:50:33;;;;;;;5.20;2.10;;;10.10;43.40;;;;;;5003896;28;20037;-85
2022/01/19 13:53:00;;;;;;;7.50;2.67;;;10.00;43.00;;;;;;4988700;28;20038;-85
2022/01/19 13:55:26;;;;;;;14.97;3.00;;;9.90;43.10;;;;;;4975210;28;20117;-85
2022/01/19 13:58:04;;;;;;;16.90;3.60;;;9.80;43.60;;;;;;4976097;28;20106;-85
2022/01/19 14:00:29;;;;;;;13.37;3.57;;;9.80;43.30;;;;;;4988268;28;20038;-85
2022/01/19 14:03:04;;;;;;;5.83;2.80;;;9.80;43.70;;;;;;4989936;28;20500;-85
2022/01/19 14:05:51;;;;;;;9.17;3.33;;;9.80;43.70;;;;;;4974763;28;20077;-85
2022/01/19 14:08:33;;;;;;;9.27;3.33;;;9.80;43.70;;;;;;4974760;28;20027;-85
2022/01/19 14:11:00;;;;;;;14.07;3.10;;;9.80;43.60;;;;;;4976111;28;20027;-85
2022/01/19 14:13:33;;;;;;;8.70;3.30;;;9.70;43.60;;;;;;4974783;28;20034;-85
2022/01/19 14:16:28;;;;;;;11.80;3.37;;;9.70;43.60;;;;;;4974544;28;20090;-86
2022/01/19 14:19:12;;;;;;;16.23;4.27;;;9.70;43.70;;;;;;4974577;28;20035;-85
2022/01/19 14:22:22;;;;;;;20.43;5.00;;;9.60;43.90;;;;;;4974645;28;20197;-85
2022/01/19 14:25:13;;;;;;;19.77;4.77;;;9.60;44.20;;;;;;4972770;28;20042;-85
2022/01/19 14:27:42;;;;;;;9.83;3.50;;;9.40;44.50;;;;;;4974494;28;20065;-85
2022/01/19 14:30:16;;;;;;;16.03;4.37;;;9.30;44.70;;;;;;4974576;28;20887;-85
2022/01/19 14:32:49;;;;;;;14.23;3.80;;;9.20;44.90;;;;;;4977439;28;20019;-85
2022/01/19 14:35:26;;;;;;;13.03;4.83;;;9.10;44.90;;;;;;4993920;28;20026;-85
2022/01/19 14:38:19;;;;;;;18.90;4.83;;;9.10;45.00;;;;;;4995370;28;20026;-85
2022/01/19 14:41:00;;;;;;;15.90;4.97;;;9.00;45.20;;;;;;4994235;28;20441;-85
2022/01/19 14:43:44;;;;;;;11.67;4.77;;;8.90;45.20;;;;;;4994735;28;20100;-83
2022/01/19 14:46:13;;;;;;;16.67;5.00;;;8.80;45.40;;;;;;4996730;28;20069;-84
2022/01/19 14:48:45;;;;;;;14.10;4.27;;;8.80;45.50;;;;;;4993506;28;20053;-84